Catlettsburg, KY (41129)

5:33 AM EDT en Septiembre 17, 2014 (GMT -0400)
Boy Scout from Ashland | Change Station
CLOSE
Current Station
Estación meteorológica personal
Location: Ashland, KY
Altura: 689 ft
Estaciones meteorológicas cercanas

Alt 689 ft 38.44 °N, 82.65 °W | Updated 14 seconds ago

Niebla
Niebla
47.8 ° F
Sensación térmica 48 ° F
N
0.0
Viento Variable Viento desde Este
Gusts 0.0 mph

Hoy
Alta -- | Baja -- ° F
--% Posibilidad de precipitaciones
Ayer
Alta -- | Baja -- ° F
Precip. -- pul
7:13 AM 7:35 PM
Cuarto menguante, 37% visible
Presión 30.06 pul
Visibilidad 4.0 Millas
Nubes Despejado
Vientos helados 48 ° F
Punto de rocío 48 ° F
Humedad 99%
Precipitaciones 0.00 pul
Espesor de la nieve No disponible.
UV 0 de una escala de 12
Polen 4.80 de una escala de 12
Calidad del aire No disponible.
Flu Activity No disponible.
SPECI KHTS 170904Z 33003KT 4SM BR CLR 10/10 A3006 RMK AO2 T01000100

More Conditions Fewer Conditions

Presión 30.06 pul
Visibilidad 4.0 Millas
Nubes Despejado
Vientos helados 48 ° F
Punto de rocío 48 ° F
Humedad 99%
Precipitaciones 0.00 pul
Espesor de la nieve No disponible.
UV 0 de una escala de 12
Polen 4.80 de una escala de 12
Calidad del aire No disponible.
Flu Activity No disponible.
SPECI KHTS 170904Z 33003KT 4SM BR CLR 10/10 A3006 RMK AO2 T01000100

More Conditions Fewer Conditions

10-Day Weather Forecast

Almanac

Astronomía

Sep. 17, 2014 Salida Puesta
Hora real 7:13 AM EDT 7:35 PM EDT
Crepúsculo civil 6:47 AM EDT 8:01 PM EDT
Crepúsculo náutico 6:16 AM EDT 8:32 PM EDT
Crepúsculo astronómico 5:44 AM EDT 9:04 PM EDT
Luna 1:16 AM EDT 3:41 PM EDT
Horas de luz 13h 14m
Horas de luz
12h 21m
Tomorrow will be 2m 28s shorter.
Cuarto menguante, 37% of the Moon is Illuminated
Hoy
Cuarto menguante
Sep 24
Nueva
Oct 1
Cuarto creciente
Oct 8
Luna llena
Oct 15
Cuarto menguante

Extremos de hoy

Máximos del estado Bajos del estado

Community

WunderPhotos

Upload Photos

1,753,991 ¡fotos cargadas!

Nearby

Grosos de nieve

Estación Profundido Altura
No tenemos constancia de nieve nueva.

Actividad de terremotos

Ciudad Distance Mag. Tiempo y dato
No hay informes recientes de la actividad sísmica.
Magnitud mínima muestra es 2,5.

Temperaturas de aguas costeras

Lugar Temperatura
Sin partes meteorológicos de las estaciones

Estaciones meteorológicas cercanas